createdAt,value
2018-02-08T00:02:07.473Z,36.07
2018-02-08T00:04:35.619Z,36.69
2018-02-08T00:07:04.574Z,36.32
2018-02-08T00:09:32.497Z,36.30
2018-02-08T00:12:00.711Z,36.46
2018-02-08T00:14:28.505Z,36.29
2018-02-08T00:16:56.284Z,36.78
2018-02-08T00:19:23.957Z,36.37
2018-02-08T00:21:51.845Z,36.30
2018-02-08T00:24:19.566Z,36.29
2018-02-08T00:26:47.650Z,36.23
2018-02-08T00:29:15.670Z,36.73
2018-02-08T00:31:44.072Z,36.65
2018-02-08T01:48:58.734Z,37.03
2018-02-08T01:51:26.673Z,37.09
2018-02-08T01:53:54.545Z,37.07
2018-02-08T01:56:22.053Z,36.99
2018-02-08T01:58:50.182Z,37.05
2018-02-08T02:01:17.733Z,37.08
2018-02-08T02:03:45.240Z,37.04
2018-02-08T02:06:12.803Z,36.92
2018-02-08T02:40:00.222Z,37.15
2018-02-08T02:42:27.736Z,37.04
2018-02-08T02:44:55.284Z,36.91
2018-02-08T02:47:22.836Z,36.86
2018-02-08T02:49:50.505Z,37.01
2018-02-08T02:52:18.031Z,36.97
2018-02-08T02:54:45.551Z,36.95
2018-02-08T02:57:13.088Z,36.83
2018-02-08T02:59:40.606Z,36.89
2018-02-08T03:02:08.286Z,36.81
2018-02-08T03:04:35.886Z,36.71
2018-02-08T03:07:03.441Z,36.70
2018-02-08T03:09:30.979Z,36.65
2018-02-08T03:11:58.550Z,36.65
2018-02-08T03:14:26.072Z,36.76
2018-02-08T03:16:53.584Z,36.76
2018-02-08T03:19:21.145Z,36.63
2018-02-08T03:21:48.706Z,36.84
2018-02-08T03:24:16.869Z,36.88
2018-02-08T03:26:44.430Z,37.00
2018-02-08T03:29:11.972Z,36.83
2018-02-08T03:31:39.495Z,36.83
2018-02-08T03:34:07.061Z,36.88
2018-02-08T03:36:34.568Z,37.09
2018-02-08T03:39:02.142Z,37.10
2018-02-08T03:41:29.639Z,37.13
2018-02-08T03:43:57.167Z,36.91
2018-02-08T03:46:24.729Z,36.88
2018-02-08T03:48:52.227Z,36.90
2018-02-08T03:51:19.759Z,36.75
2018-02-08T03:53:47.316Z,36.79
2018-02-08T03:56:14.854Z,36.81
2018-02-08T03:58:42.397Z,36.94
2018-02-08T04:01:09.927Z,36.90
2018-02-08T04:03:37.471Z,36.94
2018-02-08T04:06:05.001Z,37.07
2018-02-08T04:08:32.568Z,36.95
2018-02-08T04:11:00.091Z,36.91
2018-02-08T04:13:27.653Z,36.93
2018-02-08T04:15:55.166Z,36.84
2018-02-08T04:18:22.729Z,36.87
2018-02-08T04:20:50.242Z,37.04
2018-02-08T04:23:17.740Z,36.97
2018-02-08T04:25:45.284Z,37.11
2018-02-08T04:28:12.796Z,37.06
2018-02-08T04:30:40.409Z,37.06
2018-02-08T04:33:07.907Z,36.88
2018-02-08T04:35:35.443Z,37.08
2018-02-08T04:38:02.993Z,36.88
2018-02-08T04:40:42.339Z,37.01
2018-02-08T04:43:21.612Z,36.86
2018-02-08T04:46:00.769Z,36.87
2018-02-08T04:48:28.316Z,37.09
2018-02-08T04:50:55.837Z,37.00
2018-02-08T04:53:23.389Z,36.95
2018-02-08T04:55:50.947Z,36.86
2018-02-08T04:58:18.502Z,37.00
2018-02-08T05:00:46.984Z,36.92
2018-02-08T05:03:14.510Z,36.92
2018-02-08T05:05:42.048Z,36.91
2018-02-08T05:08:09.589Z,36.88
2018-02-08T05:10:37.093Z,36.83
2018-02-08T05:13:04.645Z,36.98
2018-02-08T05:15:32.165Z,36.88
2018-02-08T05:17:59.679Z,36.85
2018-02-08T05:20:27.254Z,36.94
2018-02-08T05:22:54.781Z,36.85
2018-02-08T05:25:22.283Z,36.90
2018-02-08T05:27:49.843Z,37.01
2018-02-08T05:30:17.352Z,37.09
2018-02-08T05:32:44.912Z,37.07
2018-02-08T05:35:12.420Z,36.73
2018-02-08T05:37:39.981Z,36.29
2018-02-08T05:40:07.538Z,36.42
2018-02-08T05:42:35.088Z,36.81
2018-02-08T05:45:02.613Z,36.88
2018-02-08T05:47:30.166Z,37.40
2018-02-08T05:49:57.680Z,36.97
2018-02-08T05:52:25.220Z,36.89
2018-02-08T05:54:52.773Z,36.86
2018-02-08T05:57:20.301Z,36.91
2018-02-08T05:59:47.874Z,36.92
2018-02-08T06:02:15.442Z,36.83
2018-02-08T06:04:42.944Z,36.78
2018-02-08T06:07:10.483Z,36.82
2018-02-08T06:09:38.031Z,36.86
2018-02-08T06:12:05.550Z,36.98
2018-02-08T06:14:33.158Z,37.10
2018-02-08T06:17:00.722Z,36.90
2018-02-08T06:19:28.231Z,36.86
2018-02-08T06:21:55.806Z,36.95
2018-02-08T06:24:23.325Z,36.95
2018-02-08T06:26:50.886Z,36.84
2018-02-08T06:29:18.450Z,36.64
2018-02-08T06:31:46.006Z,36.77
2018-02-08T06:34:13.552Z,36.87
2018-02-08T06:36:41.112Z,36.46
2018-02-08T06:39:08.643Z,35.94
2018-02-08T06:41:36.182Z,36.12
2018-02-08T06:44:03.707Z,36.08
2018-02-08T06:46:31.247Z,36.03
2018-02-08T06:48:58.810Z,36.72
2018-02-08T06:51:26.315Z,35.91
2018-02-08T06:53:53.839Z,36.94
2018-02-08T06:56:21.385Z,36.48
2018-02-08T06:58:48.911Z,36.87
2018-02-08T07:01:17.112Z,35.86
2018-02-08T07:03:44.716Z,36.19
2018-02-08T07:06:12.320Z,36.25
2018-02-08T07:08:39.846Z,35.84
2018-02-08T07:11:07.376Z,36.02
2018-02-08T07:13:34.935Z,36.23
2018-02-08T07:16:02.480Z,35.92
2018-02-08T07:18:30.028Z,35.87
2018-02-08T07:20:57.575Z,37.16
2018-02-08T07:23:25.312Z,37.23
2018-02-08T07:25:52.878Z,37.32
2018-02-08T07:28:20.387Z,36.37
2018-02-08T07:30:47.949Z,37.08
2018-02-08T07:33:15.798Z,37.18
2018-02-08T07:35:43.367Z,37.38
2018-02-08T07:38:10.881Z,36.78
2018-02-08T07:40:38.405Z,37.17
2018-02-08T07:43:05.953Z,36.19
2018-02-08T07:45:33.460Z,35.88
2018-02-08T07:48:01.017Z,36.38
2018-02-08T07:50:28.566Z,35.84
2018-02-08T07:52:56.104Z,36.05
2018-02-08T07:55:23.652Z,36.66
2018-02-08T07:57:51.226Z,36.85
2018-02-08T08:00:18.744Z,37.20
2018-02-08T08:02:47.123Z,37.15
2018-02-08T08:05:14.678Z,37.38
2018-02-08T08:07:42.188Z,37.34
2018-02-08T08:10:09.732Z,37.37
2018-02-08T08:12:37.280Z,37.45
2018-02-08T08:17:57.523Z,37.08
2018-02-08T08:20:25.049Z,37.48
2018-02-08T08:22:52.597Z,37.30
2018-02-08T08:25:20.140Z,37.08
2018-02-08T08:27:47.692Z,37.14
2018-02-08T08:30:15.200Z,36.99
2018-02-08T08:32:42.773Z,37.05
2018-02-08T08:35:10.405Z,37.39
2018-02-08T08:37:37.980Z,37.13
2018-02-08T08:40:05.510Z,37.16
2018-02-08T08:42:33.126Z,38.19
2018-02-08T08:45:00.676Z,38.18
2018-02-08T08:47:28.261Z,39.24
2018-02-08T08:49:55.822Z,38.70
2018-02-08T08:52:23.367Z,40.42
2018-02-08T08:54:51.005Z,39.45
2018-02-08T08:57:18.642Z,40.41
2018-02-08T08:59:47.160Z,40.50
2018-02-08T09:02:14.723Z,40.60
2018-02-08T09:04:42.231Z,40.37
2018-02-08T09:07:09.804Z,40.39
2018-02-08T09:09:37.376Z,40.06
2018-02-08T09:12:06.764Z,40.94
2018-02-08T09:14:34.630Z,40.84
2018-02-08T09:17:02.437Z,40.79
2018-02-08T09:19:30.278Z,40.89
2018-02-08T09:21:57.980Z,40.67
2018-02-08T09:24:25.535Z,40.65
2018-02-08T09:26:53.283Z,40.70
2018-02-08T09:29:20.992Z,40.55
2018-02-08T09:31:48.797Z,40.92
2018-02-08T09:34:17.617Z,40.59
2018-02-08T09:36:45.296Z,40.98
2018-02-08T09:39:12.948Z,40.91
2018-02-08T09:41:40.690Z,40.34
2018-02-08T09:44:08.394Z,39.07
2018-02-08T09:46:36.333Z,39.27
2018-02-08T09:49:04.115Z,39.43
2018-02-08T09:51:31.787Z,39.78
2018-02-08T09:53:59.961Z,39.25
2018-02-08T09:56:28.083Z,40.47
2018-02-08T09:58:55.708Z,40.16
2018-02-08T10:01:23.465Z,40.43
2018-02-08T10:03:52.121Z,40.11
2018-02-08T10:06:19.832Z,40.21
2018-02-08T10:08:47.458Z,40.33
2018-02-08T10:11:15.327Z,39.84
2018-02-08T10:13:43.136Z,40.61
2018-02-08T10:16:11.179Z,39.09
2018-02-08T10:18:39.137Z,38.86
2018-02-08T10:21:06.978Z,38.96
2018-02-08T10:23:35.378Z,39.23
2018-02-08T10:26:04.197Z,39.01
2018-02-08T10:28:32.223Z,39.37
2018-02-08T10:30:59.846Z,39.13
2018-02-08T10:33:27.826Z,39.58
2018-02-08T10:35:55.738Z,40.13
2018-02-08T10:38:23.853Z,39.20
2018-02-08T10:40:51.652Z,40.03
2018-02-08T10:43:19.908Z,39.99
2018-02-08T10:45:47.721Z,40.10
2018-02-08T10:48:16.718Z,39.97
2018-02-08T10:50:44.486Z,39.76
2018-02-08T10:53:12.375Z,39.84
2018-02-08T10:55:40.225Z,40.04
2018-02-08T10:58:07.857Z,40.21
2018-02-08T11:00:35.404Z,39.94
2018-02-08T11:03:03.997Z,39.83
2018-02-08T11:05:31.681Z,39.49
2018-02-08T11:07:59.797Z,36.71
2018-02-08T11:10:27.571Z,36.04
2018-02-08T11:12:55.289Z,38.13
2018-02-08T11:15:22.833Z,38.23
2018-02-08T11:17:50.366Z,38.86
2018-02-08T11:20:17.933Z,39.05
2018-02-08T11:22:45.479Z,39.33
2018-02-08T11:25:12.997Z,38.93
2018-02-08T11:27:40.552Z,38.91
2018-02-08T11:30:08.075Z,37.99
2018-02-08T11:32:35.601Z,38.56
2018-02-08T11:35:03.500Z,38.76
2018-02-08T11:37:31.235Z,39.15
2018-02-08T11:39:59.142Z,39.20
2018-02-08T11:42:26.917Z,39.31
2018-02-08T11:44:54.796Z,39.10
2018-02-08T11:47:22.545Z,39.23
2018-02-08T11:49:50.411Z,39.62
2018-02-08T11:52:18.290Z,39.56
2018-02-08T11:54:46.172Z,39.29
2018-02-08T11:57:14.069Z,39.44
2018-02-08T11:59:41.942Z,38.50
2018-02-08T12:02:09.890Z,38.95
2018-02-08T12:04:37.686Z,39.21
2018-02-08T12:07:05.502Z,39.17
2018-02-08T12:09:33.425Z,39.10
2018-02-08T12:12:01.321Z,39.17
2018-02-08T12:14:29.246Z,38.90
2018-02-08T12:16:57.065Z,38.99
2018-02-08T12:19:24.929Z,39.09
2018-02-08T12:21:52.824Z,39.14
2018-02-08T12:24:20.628Z,39.16
2018-02-08T12:26:48.544Z,39.41
2018-02-08T12:29:16.387Z,39.03
2018-02-08T12:31:44.333Z,39.21
2018-02-08T12:34:12.121Z,39.24
2018-02-08T12:36:40.093Z,38.80
2018-02-08T12:39:07.634Z,38.13
2018-02-08T12:41:35.209Z,37.40
2018-02-08T12:44:02.755Z,38.02
2018-02-08T12:46:30.320Z,38.18
2018-02-08T12:48:57.887Z,37.63
2018-02-08T12:51:25.722Z,38.02
2018-02-08T12:53:53.236Z,37.86
2018-02-08T12:56:20.780Z,37.72
2018-02-08T12:58:48.348Z,37.58
2018-02-08T13:01:16.042Z,37.51
2018-02-08T13:03:43.900Z,37.34
2018-02-08T13:06:11.474Z,37.16
2018-02-08T13:08:39.016Z,37.59
2018-02-08T13:11:06.803Z,37.06
2018-02-08T13:13:34.371Z,37.29
2018-02-08T13:16:01.912Z,36.94
2018-02-08T13:18:29.505Z,36.83
2018-02-08T13:20:57.314Z,36.90
2018-02-08T13:23:25.175Z,37.13
2018-02-08T13:25:52.732Z,36.99
2018-02-08T13:28:20.285Z,37.00
2018-02-08T13:30:47.800Z,36.86
2018-02-08T13:33:15.371Z,37.13
2018-02-08T13:35:43.232Z,36.55
2018-02-08T13:38:11.205Z,36.98
2018-02-08T13:40:51.972Z,36.93
2018-02-08T13:43:19.913Z,36.80
2018-02-08T13:45:47.947Z,36.43
2018-02-08T13:51:14.305Z,36.96
2018-02-08T13:56:52.888Z,36.89
2018-02-08T14:02:19.514Z,36.80
2018-02-08T14:04:51.227Z,36.93
2018-02-08T14:07:19.138Z,36.82
2018-02-08T14:09:46.660Z,36.87
2018-02-08T14:12:14.181Z,36.93
2018-02-08T14:14:41.895Z,37.10
2018-02-08T14:17:09.427Z,36.94
2018-02-08T14:19:37.002Z,36.71
2018-02-08T14:22:04.567Z,36.87
2018-02-08T14:24:32.057Z,37.08
2018-02-08T14:26:59.662Z,37.07
2018-02-08T14:29:27.453Z,36.99
2018-02-08T14:31:56.867Z,36.99
2018-02-08T14:34:25.893Z,36.99
2018-02-08T14:36:54.048Z,37.04
2018-02-08T14:39:21.881Z,36.94
2018-02-08T14:41:50.026Z,36.71
2018-02-08T14:44:17.574Z,36.42
2018-02-08T14:46:45.406Z,37.42
2018-02-08T14:49:13.368Z,37.38
2018-02-08T14:51:41.129Z,37.18
2018-02-08T14:54:09.145Z,36.73
2018-02-08T14:56:36.989Z,36.76
2018-02-08T14:59:04.657Z,36.72
2018-02-08T15:01:32.575Z,36.85
2018-02-08T15:04:00.894Z,37.00
2018-02-08T15:06:28.977Z,36.99
2018-02-08T15:08:57.404Z,37.10
2018-02-08T15:11:25.847Z,36.89
2018-02-08T15:13:53.802Z,37.33
2018-02-08T15:16:21.593Z,37.15
2018-02-08T15:18:49.581Z,37.13
2018-02-08T15:21:17.326Z,36.97
2018-02-08T15:23:45.105Z,37.33
2018-02-08T15:26:13.055Z,37.29
2018-02-08T15:28:41.105Z,37.46
2018-02-08T15:31:09.020Z,37.58
2018-02-08T15:33:37.097Z,37.68
2018-02-08T15:36:04.736Z,37.34
2018-02-08T15:38:32.247Z,37.61
2018-02-08T15:40:59.818Z,37.37
2018-02-08T15:43:27.328Z,37.37
2018-02-08T15:45:55.689Z,38.31
2018-02-08T15:48:23.295Z,37.72
2018-02-08T15:50:50.860Z,37.52
2018-02-08T15:53:18.400Z,37.29
2018-02-08T15:55:45.923Z,37.25
2018-02-08T15:58:13.482Z,37.15
2018-02-08T16:00:40.990Z,37.17
2018-02-08T16:03:08.569Z,37.45
2018-02-08T16:05:36.090Z,37.05
2018-02-08T16:08:03.641Z,37.24
2018-02-08T16:10:31.170Z,37.30
2018-02-08T16:12:58.695Z,37.31
2018-02-08T16:15:26.249Z,37.36
2018-02-08T16:17:53.814Z,37.26
2018-02-08T16:20:21.336Z,37.25
2018-02-08T16:22:49.235Z,37.73
2018-02-08T16:25:17.089Z,37.44
2018-02-08T16:27:44.934Z,37.17
2018-02-08T16:30:12.957Z,37.01
2018-02-08T16:32:40.500Z,37.06
2018-02-08T16:35:08.305Z,37.25
2018-02-08T16:37:35.868Z,37.19
2018-02-08T16:40:04.160Z,36.92
2018-02-08T16:42:32.202Z,37.25
2018-02-08T16:45:00.063Z,37.26
2018-02-08T16:47:28.085Z,37.23
2018-02-08T16:49:55.610Z,37.54
2018-02-08T16:52:23.184Z,37.33
2018-02-08T16:54:50.694Z,37.23
2018-02-08T16:57:18.249Z,38.29
2018-02-08T16:59:45.817Z,38.59
2018-02-08T17:02:13.382Z,38.65
2018-02-08T17:04:40.968Z,38.98
2018-02-08T17:07:08.493Z,38.76
2018-02-08T17:09:36.027Z,37.58
2018-02-08T17:12:03.583Z,37.87
2018-02-08T17:14:31.097Z,37.39
2018-02-08T17:16:58.602Z,37.74
2018-02-08T17:19:26.239Z,37.83
2018-02-08T17:21:53.759Z,37.84
2018-02-08T17:24:21.263Z,38.02
2018-02-08T17:26:48.955Z,37.87
2018-02-08T17:29:16.465Z,37.97
2018-02-08T17:31:44.023Z,37.95
2018-02-08T17:34:12.494Z,38.31
2018-02-08T17:36:40.036Z,38.09
2018-02-08T17:39:07.590Z,38.12
2018-02-08T17:41:35.554Z,38.69
2018-02-08T17:44:03.189Z,38.60
2018-02-08T17:46:30.753Z,38.61
2018-02-08T17:48:58.315Z,38.16
2018-02-08T17:51:25.917Z,37.99
2018-02-08T17:53:53.520Z,38.55
2018-02-08T17:56:21.046Z,38.04
2018-02-08T17:58:48.593Z,38.24
2018-02-08T18:01:16.138Z,39.12
2018-02-08T18:03:43.689Z,39.28
2018-02-08T18:06:11.222Z,39.41
2018-02-08T18:08:38.791Z,38.84
2018-02-08T18:11:06.319Z,39.10
2018-02-08T18:13:33.864Z,39.02
2018-02-08T18:16:01.390Z,38.87
2018-02-08T18:18:29.109Z,38.64
2018-02-08T18:20:56.630Z,38.18
2018-02-08T18:23:24.203Z,38.57
2018-02-08T18:25:51.762Z,38.50
2018-02-08T18:28:19.280Z,38.48
2018-02-08T18:30:46.827Z,38.21
2018-02-08T18:33:14.331Z,37.62
2018-02-08T18:35:41.917Z,37.37
2018-02-08T18:38:09.524Z,37.99
2018-02-08T18:40:37.308Z,38.15
2018-02-08T18:43:04.956Z,38.06
2018-02-08T18:45:32.462Z,37.77
2018-02-08T18:47:59.981Z,37.67
2018-02-08T18:50:27.531Z,37.82
2018-02-08T18:52:55.744Z,37.70
2018-02-08T18:55:23.314Z,38.00
2018-02-08T18:57:50.829Z,38.27
2018-02-08T19:00:18.387Z,38.41
2018-02-08T19:02:45.918Z,38.14
2018-02-08T19:05:13.504Z,37.96
2018-02-08T19:07:41.043Z,38.22
2018-02-08T19:10:08.602Z,38.30
2018-02-08T19:12:36.129Z,38.25
2018-02-08T19:15:03.693Z,39.09
2018-02-08T19:17:31.263Z,38.53
2018-02-08T19:19:58.786Z,38.23
2018-02-08T19:22:26.337Z,38.24
2018-02-08T19:24:53.914Z,38.14
2018-02-08T19:27:21.457Z,38.13
2018-02-08T19:29:48.980Z,37.99
2018-02-08T19:32:16.544Z,37.85
2018-02-08T19:34:44.070Z,37.69
2018-02-08T19:37:11.626Z,37.70
2018-02-08T19:39:39.169Z,37.56
2018-02-08T19:42:06.738Z,38.37
2018-02-08T19:44:34.279Z,37.43
2018-02-08T19:47:01.829Z,37.89
2018-02-08T19:49:29.386Z,37.32
2018-02-08T19:51:56.943Z,37.51
2018-02-08T19:54:24.532Z,37.89
2018-02-08T19:56:52.076Z,37.80
2018-02-08T19:59:19.643Z,37.60
2018-02-08T20:01:47.201Z,37.54
2018-02-08T20:04:14.879Z,37.53
2018-02-08T20:06:42.389Z,37.44
2018-02-08T20:09:09.927Z,37.36
2018-02-08T20:11:37.431Z,37.63
2018-02-08T20:17:01.155Z,38.12
2018-02-08T20:19:28.695Z,38.49
2018-02-08T20:21:56.241Z,38.28
2018-02-08T20:24:23.769Z,38.33
2018-02-08T20:26:51.322Z,38.31
2018-02-08T20:29:18.878Z,40.02
2018-02-08T20:31:46.403Z,40.89
2018-02-08T20:34:13.954Z,40.03
2018-02-08T20:36:41.525Z,39.82
2018-02-08T20:39:09.051Z,39.19
2018-02-08T20:41:36.610Z,39.09
2018-02-08T20:44:04.130Z,38.86
2018-02-08T20:46:31.684Z,38.83
2018-02-08T20:48:59.224Z,38.49
2018-02-08T20:51:26.810Z,38.38
2018-02-08T20:59:40.061Z,38.33
2018-02-08T21:02:07.610Z,38.31
2018-02-08T21:04:35.273Z,38.42
2018-02-08T21:07:02.859Z,38.28
2018-02-08T21:09:30.432Z,38.35
2018-02-08T21:11:58.144Z,38.48
2018-02-08T21:14:26.023Z,38.55
2018-02-08T21:16:53.867Z,38.58
2018-02-08T21:19:21.526Z,38.66
2018-02-08T21:21:49.151Z,38.78
2018-02-08T21:24:16.778Z,38.71
2018-02-08T21:26:44.332Z,38.74
2018-02-08T21:29:11.898Z,38.63
2018-02-08T21:31:39.521Z,38.80
2018-02-08T21:34:07.097Z,38.75
2018-02-08T21:36:34.634Z,38.71
2018-02-08T21:39:02.199Z,38.46
2018-02-08T21:41:29.813Z,38.21
2018-02-08T21:43:57.390Z,38.30
2018-02-08T21:46:24.955Z,38.51
2018-02-08T21:48:52.527Z,38.59
2018-02-08T21:51:20.073Z,38.34
2018-02-08T21:53:47.717Z,38.48
2018-02-08T21:56:15.299Z,38.81
2018-02-08T21:58:42.898Z,38.69
2018-02-08T22:01:10.490Z,38.76
2018-02-08T22:03:38.086Z,38.55
2018-02-08T22:06:05.697Z,38.35
2018-02-08T22:08:33.272Z,38.27
2018-02-08T22:11:00.869Z,38.13
2018-02-08T22:13:28.479Z,38.09
2018-02-08T22:15:56.547Z,38.12
2018-02-08T22:18:24.151Z,38.21
2018-02-08T22:20:51.744Z,38.21
2018-02-08T22:23:19.330Z,38.40
2018-02-08T22:25:46.936Z,38.35
2018-02-08T22:28:14.527Z,38.41
2018-02-08T22:30:42.069Z,38.46
2018-02-08T23:04:48.072Z,38.28
2018-02-08T23:07:15.582Z,38.26
2018-02-08T23:09:43.155Z,38.34
2018-02-08T23:12:10.686Z,38.32
2018-02-08T23:14:38.200Z,38.31
2018-02-08T23:17:05.767Z,38.28
2018-02-08T23:19:33.293Z,38.31
2018-02-08T23:22:00.860Z,38.37
2018-02-08T23:24:28.440Z,38.35
2018-02-08T23:26:56.293Z,38.38
2018-02-08T23:29:23.856Z,38.51
2018-02-08T23:31:51.400Z,38.74
2018-02-08T23:34:18.970Z,38.32
2018-02-08T23:36:46.489Z,38.11
2018-02-08T23:39:13.995Z,37.96
2018-02-08T23:41:41.566Z,37.73
2018-02-08T23:44:09.083Z,37.31
2018-02-08T23:46:36.609Z,37.16
2018-02-08T23:49:04.177Z,37.13
2018-02-08T23:51:31.702Z,37.63
2018-02-08T23:53:59.265Z,37.38
2018-02-08T23:56:26.799Z,37.68
2018-02-08T23:58:54.315Z,37.84
